• Join FlightAware (Why Join?)
  • Login
  • US Flag 
07:32PM EDT


 

Airport Tracker/Info


-or-


 

Live Flight TrackerFlight Track Log ✈ AWE3827 ✈ 23-Apr-2013 ✈ KCLT - KBNA

Flight Track Log - Related Links

Times and Time Zones

All times are in EDT time to prevent confusion due to time zone crossing. See the AWE3827 flight status page for this flight to view local times or setup timezone preferences in your user account.

Time Position Orientation Groundspeed Altitude Reporting Facility
EDT Latitude Longitude Course Direction KTS MPH feet Rate Location/Type
08:10AM 35.2414 -80.9561 239° Southwest 160 184 2,000  Level FAA TRACON SMA TRACON (SMA)
08:10AM 35.2542 -80.9644 332° Northwest 185 213 2,500 1,620 Climbing FAA TRACON SMA TRACON (SMA)
08:11AM 35.2700 -80.9822 317° Northwest 211 243 3,100 1,920 Climbing FAA TRACON SMA TRACON (SMA)
08:11AM 35.2844 -80.9975 319° Northwest 226 260 3,800 1,800 Climbing FAA TRACON SMA TRACON (SMA)
08:11AM 35.2944 -81.0189 300° West 254 292 4,300 1,800 Climbing FAA TRACON SMA TRACON (SMA)
08:12AM 35.2925 -81.0544 266° West 280 322 5,000 2,700 Climbing FAA TRACON SMA TRACON (SMA)
08:12AM 35.2842 -81.1183 261° West 278 320 7,000 2,700 Climbing FAA TRACON SMA TRACON (SMA)
08:13AM 35.2811 -81.1469 263° West 274 315 7,700 1,440 Climbing FAA TRACON SMA TRACON (SMA)
08:13AM 35.2778 -81.1753 262° West 275 316 8,000 420 Climbing FAA TRACON SMA TRACON (SMA)
08:13AM 35.2736 -81.2108 262° West 274 315 8,000 720 Level FAA TRACON SMA TRACON (SMA)
08:14AM 35.2658 -81.2383 251° West 287 330 8,500 2,100 Climbing FAA TRACON SMA TRACON (SMA)
08:14AM 35.2550 -81.2642 243° Southwest 270 311 9,400 2,520 Climbing FAA TRACON SMA TRACON (SMA)
08:14AM 35.2411 -81.2967 242° Southwest 280 322 10,200 1,500 Climbing FAA TRACON SMA TRACON (SMA)
08:15AM 35.1496 -81.4676 239° Southwest  Level FlightAware Approximate
08:15AM 35.2306 -81.3214 242° Southwest 288 331 10,400  Level FAA TRACON SMA TRACON (SMA)
08:15AM 35.2150 -81.3542 240° Southwest 333 383 10,500 1,320 Climbing FAA TRACON SMA TRACON (SMA)
08:15AM 35.1978 -81.3925 241° Southwest 335 386 11,300 1,980 Climbing FAA TRACON SMA TRACON (SMA)
08:16AM 35.1842 -81.4236 242° Southwest 336 387 11,800 1,260 Climbing FAA TRACON SMA TRACON (SMA)
08:16AM 35.1703 -81.4547 241° Southwest 340 391 12,200 1,920 Climbing FAA TRACON SMA TRACON (SMA)
08:16AM 35.1544 -81.4914 242° Southwest 342 394 13,100 2,220 Climbing FAA TRACON SMA TRACON (SMA)
08:17AM 35.1464 -81.5289 255° West 339 390 13,700 1,560 Climbing FAA TRACON SMA TRACON (SMA)
08:17AM 35.1439 -81.5636 265° West 339 390 14,200 1,500 Climbing FAA TRACON SMA TRACON (SMA)
08:17AM 35.1403 -81.6081 264° West 341 392 14,700 1,500 Climbing FAA TRACON SMA TRACON (SMA)
08:18AM 35.1383 -81.6436 266° West 341 392 15,200 1,500 Climbing FAA TRACON SMA TRACON (SMA)
08:18AM 35.1353 -81.6836 265° West 342 394 15,700 1,200 Climbing FAA TRACON SMA TRACON (SMA)
08:18AM 35.1325 -81.7242 265° West 344 396 16,000 420 Climbing FAA TRACON SMA TRACON (SMA)
08:19AM 35.1294 -81.7608 264° West 346 398 16,000  Level FAA TRACON SMA TRACON (SMA)
08:19AM 35.1267 -81.7972 265° West 349 402 16,000 120 Level FAA TRACON SMA TRACON (SMA)
08:19AM 35.1225 -81.8425 264° West 349 402 16,100 900 Climbing FAA TRACON SMA TRACON (SMA)
08:20AM 35.1194 -81.8786 264° West 349 402 16,600 1,500 Climbing FAA TRACON SMA TRACON (SMA)
08:20AM 35.1167 -81.9153 265° West 351 404 17,100 1,500 Climbing FAA TRACON SMA TRACON (SMA)
08:20AM 35.1128 -81.9611 264° West 352 405 17,600 840 Climbing FAA TRACON SMA TRACON (SMA)
08:21AM 35.1092 -81.9978 263° West 353 406 17,700 540 Climbing FAA TRACON SMA TRACON (SMA)
08:21AM 35.1067 -82.0350 265° West 356 410 18,000 420 Climbing FAA TRACON SMA TRACON (SMA)
08:21AM 35.1036 -82.0728 264° West 360 414 18,000  Level FAA TRACON SMA TRACON (SMA)
08:22AM 35.1036 -82.0728 59° Northeast 360 414 18,000 1,020 Level FAA TRACON SMA TRACON (SMA)
08:23AM 35.0900 -82.2644 265° West 356 410 19,600 1,500 Climbing Atlanta Center
08:24AM 35.1353 -82.3675 298° West 331 381 20,800 960 Climbing Atlanta Center
08:25AM 35.1781 -82.4481 303° West 332 382 21,600 960 Climbing Atlanta Center
08:26AM 35.2378 -82.5614 303° West 344 396 22,800 660 Climbing Atlanta Center
08:27AM 35.2933 -82.6722 302° West 349 402 23,000 360 Climbing Atlanta Center
08:28AM 35.3342 -82.7914 293° West 354 407 23,600 480 Climbing Atlanta Center
08:29AM 35.3478 -82.9031 279° West 361 415 24,000 180 Climbing Atlanta Center
08:30AM 35.3656 -83.0200 281° West 366 421 24,000  Level Atlanta Center
08:31AM 35.3853 -83.1394 281° West 366 421 24,000  Level Atlanta Center
08:32AM 35.4050 -83.2539 282° West 359 413 24,000  Level Atlanta Center
08:33AM 35.4203 -83.3711 279° West 354 407 24,000  Level Atlanta Center
08:34AM 35.4417 -83.4881 283° West 354 407 24,000  Level Atlanta Center
08:35AM 35.4567 -83.6053 279° West 354 407 24,000  Level Atlanta Center
08:36AM 35.4758 -83.7175 282° West 349 402 24,000  Level Atlanta Center
08:37AM 35.4928 -83.8422 280° West 349 402 24,000  Level Atlanta Center
08:38AM 35.5097 -83.9544 281° West 349 402 24,000  Level Atlanta Center
08:39AM 35.5264 -84.0694 280° West 344 396 24,000  Level Atlanta Center
08:40AM 35.5431 -84.1792 281° West 344 396 24,000  Level Atlanta Center
08:41AM 35.5575 -84.2942 279° West 339 390 24,000 -600 Level Atlanta Center
08:42AM 35.5739 -84.4064 280° West 339 390 22,800 -1,320 Descending Atlanta Center
08:43AM 35.5922 -84.5239 281° West 339 390 21,400 -1,440 Descending Atlanta Center
08:44AM 35.6083 -84.6442 279° West 350 403 20,000 -720 Descending Atlanta Center
08:45AM 35.6244 -84.7617 280° West 356 410 20,000  Level Atlanta Center
08:46AM 35.6403 -84.8769 280° West 356 410 20,000  Level Atlanta Center
08:48AM 35.6661 -85.0625 280° West 349 402 20,000  Level Memphis Center
08:49AM 35.6819 -85.1917 279° West 349 402 20,000  Level Memphis Center
08:50AM 35.6639 -85.3131 260° West 349 402 20,000  Level Memphis Center
08:51AM 35.6519 -85.4314 263° West 349 402 20,000  Level Memphis Center
08:52AM 35.6544 -85.5486 272° West 349 402 20,000  Level Memphis Center
08:53AM 35.6569 -85.6661 272° West 349 402 20,000 -1,380 Level Memphis Center
08:54AM 35.6597 -85.7936 272° West 354 407 17,300 -2,640 Descending Memphis Center
08:55AM 35.6636 -85.9008 273° West 360 414 14,800 -2,280 Descending Memphis Center
08:56AM 35.7067 -86.0006 298° West 337 388 12,800 -2,040 Descending Memphis Center
08:57AM 35.7661 -86.0897 309° West 337 388 10,800 -1,320 Descending Memphis Center
08:58AM 35.8500 -86.2333 306° West 296 341 9,500 -1,020 Descending Nashville TRACON
08:59AM 35.8678 -86.2586 311° West 308 354 8,800 -1,860 Descending Memphis Center
09:00AM 35.9206 -86.3431 308° West 290 334 6,900 -1,860 Descending Memphis Center
09:01AM 35.9644 -86.4153 307° West 278 320 5,100 -960 Descending Memphis Center
09:02AM 36.0064 -86.4825 308° West 266 306 5,000 -60 Descending Memphis Center
09:03AM 36.0681 -86.5206 333° Northwest 237 273 5,000 -840 Level Memphis Center
09:04AM 36.1333 -86.5458 343° North 243 280 3,400 -1,500 Descending Memphis Center
09:05AM 36.2022 -86.5453 360° North 243 280 2,000 -720 Descending Memphis Center
09:06AM 36.2247 -86.6008 297° West 185 213 2,000 -60 Level Memphis Center
09:07AM 36.2114 -86.6478 251° West 124 143 1,900 -120 Descending Memphis Center